Time;durP1;ratioP1;P1;durP2;ratioP2;P2;SDS_P1;SDS_P2;PMS_P1;PMS_P2;Temp;Humidity;BMP_temperature;BMP_pressure;BME280_temperature;BME280_humidity;BME280_pressure;Samples;Min_cycle;Max_cycle;Signal;HPM_P1;HPM_P2
2022/06/20 00:00:48;;;;;;;11.35;3.15;;;;;;;;;;4972983;28;20035;-72
2022/06/20 00:03:20;;;;;;;8.38;2.90;;;;;;;;;;4972657;28;20037;-72
2022/06/20 00:05:47;;;;;;;10.02;3.67;;;;;;;;;;4954771;28;20034;-71
2022/06/20 00:08:14;;;;;;;8.13;3.10;;;;;;;;;;4972307;28;20419;-72
2022/06/20 00:10:42;;;;;;;10.95;3.78;;;;;;;;;;4972738;28;20018;-72
2022/06/20 00:13:15;;;;;;;9.05;2.63;;;;;;;;;;4955108;28;20038;-71
2022/06/20 00:15:42;;;;;;;10.05;2.85;;;;;;;;;;4972971;28;20051;-71
2022/06/20 00:18:09;;;;;;;12.25;3.17;;;;;;;;;;4972401;28;20026;-72
2022/06/20 00:20:35;;;;;;;6.93;2.40;;;;;;;;;;4972344;28;20023;-72
2022/06/20 00:23:01;;;;;;;7.25;2.72;;;;;;;;;;4972158;28;20375;-72
2022/06/20 00:25:30;;;;;;;7.50;2.60;;;;;;;;;;4972628;28;20025;-72
2022/06/20 00:27:56;;;;;;;7.47;2.67;;;;;;;;;;4972453;28;20121;-72
2022/06/20 00:30:23;;;;;;;8.00;2.83;;;;;;;;;;4955829;28;20039;-72
2022/06/20 00:32:50;;;;;;;8.80;3.20;;;;;;;;;;4972157;28;20089;-72
2022/06/20 00:35:16;;;;;;;11.07;2.90;;;;;;;;;;4972336;28;20031;-72
2022/06/20 00:37:43;;;;;;;8.57;3.00;;;;;;;;;;4955276;28;20043;-71
2022/06/20 00:40:19;;;;;;;6.72;2.20;;;;;;;;;;4974156;28;20046;-71
2022/06/20 00:42:45;;;;;;;7.78;2.50;;;;;;;;;;4972812;28;20030;-72
2022/06/20 00:45:12;;;;;;;9.80;2.72;;;;;;;;;;4975931;28;20033;-72
2022/06/20 00:47:39;;;;;;;8.63;2.47;;;;;;;;;;4975914;28;20011;-71
2022/06/20 00:50:11;;;;;;;9.20;2.60;;;;;;;;;;4975319;28;20536;-72
2022/06/20 00:52:41;;;;;;;7.75;2.53;;;;;;;;;;4976115;28;20027;-72
2022/06/20 00:55:10;;;;;;;8.45;2.53;;;;;;;;;;4976102;28;20038;-72
2022/06/20 00:57:55;;;;;;;8.43;2.65;;;;;;;;;;4976259;28;20037;-72
2022/06/20 01:00:27;;;;;;;8.07;2.40;;;;;;;;;;4975096;28;20047;-71
2022/06/20 01:03:03;;;;;;;10.52;2.78;;;;;;;;;;4975920;28;20073;-72
2022/06/20 01:05:36;;;;;;;9.48;2.92;;;;;;;;;;4975390;28;20094;-71
2022/06/20 01:08:05;;;;;;;6.90;2.92;;;;;;;;;;4975690;28;20019;-72
2022/06/20 01:10:39;;;;;;;9.43;2.60;;;;;;;;;;4976013;28;20019;-72
2022/06/20 01:13:07;;;;;;;6.68;2.53;;;;;;;;;;4975572;28;20039;-72
2022/06/20 01:15:38;;;;;;;7.00;2.42;;;;;;;;;;4975869;28;20047;-72
2022/06/20 01:18:04;;;;;;;;;;;;;;;;;;4975485;28;20031;-71
2022/06/20 01:20:32;;;;;;;6.75;2.35;;;;;;;;;;4975329;28;19920;-72
2022/06/20 01:23:01;;;;;;;8.15;2.55;;;;;;;;;;4975290;28;20027;-71
2022/06/20 01:25:40;;;;;;;6.70;2.45;;;;;;;;;;4975399;28;20023;-72
2022/06/20 01:28:08;;;;;;;11.77;2.78;;;;;;;;;;4975051;28;20026;-72
2022/06/20 01:30:36;;;;;;;9.60;2.80;;;;;;;;;;4975783;28;20034;-72
2022/06/20 01:33:02;;;;;;;8.73;2.58;;;;;;;;;;4958133;28;20019;-72
2022/06/20 01:38:14;;;;;;;7.80;2.40;;;;;;;;;;4975282;28;20026;-72
2022/06/20 01:42:18;;;;;;;6.43;2.90;;;;;;;;;;4975136;28;20037;-71
2022/06/20 01:43:32;;;;;;;8.68;2.25;;;;;;;;;;4974925;28;20488;-72
2022/06/20 01:45:58;;;;;;;5.90;2.40;;;;;;;;;;4974935;28;20373;-72
2022/06/20 01:48:27;;;;;;;12.02;2.92;;;;;;;;;;4974912;28;20029;-71
2022/06/20 01:50:53;;;;;;;11.52;2.80;;;;;;;;;;4973756;28;20052;-71
2022/06/20 01:53:23;;;;;;;16.85;2.85;;;;;;;;;;4974587;28;20507;-71
2022/06/20 01:55:52;;;;;;;9.90;2.73;;;;;;;;;;4957389;28;20031;-71
2022/06/20 01:58:21;;;;;;;7.95;2.42;;;;;;;;;;4959387;28;20292;-72
2022/06/20 02:00:48;;;;;;;11.02;2.85;;;;;;;;;;4971336;28;20023;-72
2022/06/20 02:03:17;;;;;;;5.72;2.63;;;;;;;;;;4974536;28;20410;-71
2022/06/20 02:05:44;;;;;;;8.30;2.78;;;;;;;;;;4974251;28;20029;-72
2022/06/20 02:08:12;;;;;;;7.90;2.55;;;;;;;;;;4974407;28;20053;-71
2022/06/20 02:10:45;;;;;;;4.97;2.47;;;;;;;;;;4974548;28;20399;-72
2022/06/20 02:13:13;;;;;;;9.25;2.55;;;;;;;;;;4974473;28;20506;-71
2022/06/20 02:15:40;;;;;;;9.05;2.70;;;;;;;;;;4974686;28;20053;-71
2022/06/20 02:18:08;;;;;;;7.28;2.33;;;;;;;;;;4974184;28;20014;-72
2022/06/20 02:20:38;;;;;;;7.97;2.63;;;;;;;;;;4974088;28;20057;-71
2022/06/20 02:23:05;;;;;;;6.43;2.38;;;;;;;;;;4973980;28;20395;-71
2022/06/20 02:25:34;;;;;;;9.88;2.42;;;;;;;;;;4974172;28;20037;-71
2022/06/20 02:28:06;;;;;;;9.43;2.78;;;;;;;;;;4974404;28;20391;-72
2022/06/20 02:30:35;;;;;;;7.55;2.47;;;;;;;;;;4973286;28;20031;-72
2022/06/20 02:33:04;;;;;;;6.80;2.50;;;;;;;;;;4974505;28;20081;-72
2022/06/20 02:35:31;;;;;;;7.95;2.30;;;;;;;;;;4973798;28;20027;-72
2022/06/20 02:37:58;;;;;;;6.00;2.45;;;;;;;;;;4974164;28;20029;-71
2022/06/20 02:40:25;;;;;;;6.28;2.47;;;;;;;;;;4973997;28;20041;-72
2022/06/20 02:42:53;;;;;;;9.00;3.08;;;;;;;;;;4974340;28;20391;-71
2022/06/20 02:45:20;;;;;;;7.35;2.50;;;;;;;;;;4973935;28;20057;-71
2022/06/20 02:47:48;;;;;;;8.38;2.65;;;;;;;;;;4973920;28;20014;-71
2022/06/20 02:50:16;;;;;;;7.32;2.75;;;;;;;;;;4974049;28;20037;-71
2022/06/20 02:52:49;;;;;;;4.93;2.28;;;;;;;;;;4973728;28;20026;-72
2022/06/20 02:55:16;;;;;;;6.50;2.33;;;;;;;;;;4973553;28;20492;-72
2022/06/20 02:57:46;;;;;;;8.13;2.78;;;;;;;;;;4972762;28;20034;-71
2022/06/20 03:00:41;;;;;;;8.13;2.60;;;;;;;;;;4972968;28;20045;-72
2022/06/20 03:03:13;;;;;;;8.13;2.72;;;;;;;;;;4894442;29;20064;-71
2022/06/20 03:05:39;;;;;;;8.18;2.92;;;;;;;;;;4894859;29;20091;-71
2022/06/20 03:08:06;;;;;;;7.20;2.47;;;;;;;;;;4894945;29;20032;-72
2022/06/20 03:10:52;;;;;;;10.10;2.72;;;;;;;;;;4894815;29;20025;-71
2022/06/20 03:13:20;;;;;;;9.32;2.50;;;;;;;;;;4880344;29;20029;-72
2022/06/20 03:15:47;;;;;;;6.95;2.63;;;;;;;;;;4890935;29;20052;-72
2022/06/20 03:18:16;;;;;;;6.65;2.80;;;;;;;;;;4894597;29;20039;-72
2022/06/20 03:20:43;;;;;;;7.28;2.70;;;;;;;;;;4894412;29;20048;-71
2022/06/20 03:23:10;;;;;;;8.10;2.80;;;;;;;;;;4894389;29;20028;-72
2022/06/20 03:25:38;;;;;;;14.63;2.78;;;;;;;;;;4894552;29;20493;-71
2022/06/20 03:28:05;;;;;;;10.20;2.80;;;;;;;;;;4894434;29;20032;-72
2022/06/20 03:30:33;;;;;;;7.00;2.40;;;;;;;;;;4894746;29;20039;-71
2022/06/20 03:33:00;;;;;;;9.38;3.00;;;;;;;;;;4878669;29;20045;-71
2022/06/20 03:35:30;;;;;;;4.82;2.47;;;;;;;;;;4894529;29;20060;-71
2022/06/20 03:37:58;;;;;;;10.88;2.97;;;;;;;;;;4894740;29;20024;-71
2022/06/20 03:40:25;;;;;;;8.35;2.70;;;;;;;;;;4963132;28;20042;-72
2022/06/20 03:42:51;;;;;;;6.68;2.50;;;;;;;;;;4973053;28;20039;-72
2022/06/20 03:45:18;;;;;;;9.23;2.85;;;;;;;;;;4972870;28;20073;-72
2022/06/20 03:47:51;;;;;;;7.97;2.78;;;;;;;;;;4972770;28;20018;-71
2022/06/20 03:50:25;;;;;;;9.38;3.33;;;;;;;;;;4972729;28;20038;-71
2022/06/20 03:52:51;;;;;;;12.15;3.25;;;;;;;;;;4973015;28;20011;-71
2022/06/20 03:55:23;;;;;;;8.90;2.80;;;;;;;;;;4972906;28;20019;-72
2022/06/20 03:57:50;;;;;;;8.85;2.97;;;;;;;;;;4968989;28;20438;-72
2022/06/20 04:00:18;;;;;;;7.18;2.80;;;;;;;;;;4972711;28;20047;-71
2022/06/20 04:02:56;;;;;;;8.10;2.78;;;;;;;;;;4972902;28;20023;-71
2022/06/20 04:05:22;;;;;;;7.80;2.75;;;;;;;;;;4972729;28;20027;-72
2022/06/20 04:08:01;;;;;;;7.97;2.75;;;;;;;;;;4972699;28;20049;-72
2022/06/20 04:10:58;;;;;;;5.95;2.88;;;;;;;;;;4958366;28;20030;-71
2022/06/20 04:13:53;;;;;;;7.60;2.70;;;;;;;;;;4972064;28;20470;-71
2022/06/20 04:16:23;;;;;;;8.57;2.60;;;;;;;;;;4961440;28;20033;-71
2022/06/20 04:18:51;;;;;;;6.18;2.95;;;;;;;;;;4973193;28;20039;-72
2022/06/20 04:21:27;;;;;;;7.75;2.85;;;;;;;;;;4976327;28;20039;-72
2022/06/20 04:23:57;;;;;;;6.72;3.05;;;;;;;;;;4958736;28;20022;-72
2022/06/20 04:26:26;;;;;;;9.07;2.85;;;;;;;;;;4976122;28;20031;-72
2022/06/20 04:28:58;;;;;;;8.23;2.67;;;;;;;;;;4975619;28;20025;-71
2022/06/20 04:31:43;;;;;;;8.63;2.78;;;;;;;;;;4976423;28;20029;-71
2022/06/20 04:34:26;;;;;;;10.43;3.20;;;;;;;;;;4974643;28;20049;-72
2022/06/20 04:36:59;;;;;;;5.07;2.70;;;;;;;;;;4972999;28;20023;-72
2022/06/20 04:39:39;;;;;;;13.73;3.22;;;;;;;;;;4974489;28;20049;-71
2022/06/20 04:42:18;;;;;;;5.75;2.95;;;;;;;;;;4974154;28;20031;-72
2022/06/20 04:44:49;;;;;;;11.43;2.78;;;;;;;;;;4975959;28;20026;-72
2022/06/20 04:47:35;;;;;;;11.02;3.22;;;;;;;;;;4958690;28;20037;-71
2022/06/20 04:50:01;;;;;;;7.75;3.20;;;;;;;;;;4975558;28;20023;-71
2022/06/20 04:52:29;;;;;;;8.15;3.00;;;;;;;;;;4975738;28;20449;-71
2022/06/20 04:54:57;;;;;;;6.38;2.75;;;;;;;;;;4975862;28;20391;-72
2022/06/20 04:57:25;;;;;;;7.22;3.05;;;;;;;;;;4975680;28;20031;-71
2022/06/20 04:59:52;;;;;;;8.10;3.60;;;;;;;;;;4975732;28;20041;-72
2022/06/20 05:02:20;;;;;;;9.32;3.42;;;;;;;;;;4975641;28;20034;-71
2022/06/20 05:04:49;;;;;;;5.05;3.08;;;;;;;;;;4975565;28;20025;-72
2022/06/20 05:07:20;;;;;;;4.95;2.80;;;;;;;;;;4975735;28;20038;-71
2022/06/20 05:09:51;;;;;;;9.68;2.90;;;;;;;;;;4972084;28;20033;-71
2022/06/20 05:12:23;;;;;;;5.80;2.65;;;;;;;;;;4975367;28;20039;-71
2022/06/20 05:15:04;;;;;;;5.53;2.95;;;;;;;;;;4975208;28;20043;-72
2022/06/20 05:17:31;;;;;;;9.05;3.35;;;;;;;;;;4975237;28;20041;-71
2022/06/20 05:20:04;;;;;;;9.75;3.50;;;;;;;;;;4975363;28;20035;-71
2022/06/20 05:22:32;;;;;;;8.65;3.58;;;;;;;;;;4975395;28;20025;-71
2022/06/20 05:25:00;;;;;;;6.72;3.25;;;;;;;;;;4974710;28;20038;-72
2022/06/20 05:27:29;;;;;;;8.23;3.53;;;;;;;;;;4975899;28;20033;-72
2022/06/20 05:29:58;;;;;;;7.35;3.17;;;;;;;;;;4975008;28;20031;-71
2022/06/20 05:32:42;;;;;;;10.57;3.50;;;;;;;;;;4957850;28;20023;-72
2022/06/20 05:35:29;;;;;;;8.43;3.40;;;;;;;;;;4975167;28;20015;-72
2022/06/20 05:37:59;;;;;;;8.05;3.53;;;;;;;;;;4962490;28;20492;-71
2022/06/20 05:40:36;;;;;;;13.03;3.93;;;;;;;;;;4974509;28;20042;-72
2022/06/20 05:43:02;;;;;;;6.30;3.38;;;;;;;;;;4975100;28;20029;-72
2022/06/20 05:45:30;;;;;;;7.65;3.33;;;;;;;;;;4975330;28;20047;-71
2022/06/20 05:47:59;;;;;;;7.25;3.17;;;;;;;;;;4974620;28;20026;-71
2022/06/20 05:50:52;;;;;;;5.68;2.83;;;;;;;;;;4974663;28;20490;-71
2022/06/20 05:53:24;;;;;;;6.53;3.58;;;;;;;;;;4971403;28;20043;-71
2022/06/20 05:55:51;;;;;;;11.02;3.63;;;;;;;;;;4974516;28;20089;-72
2022/06/20 05:58:20;;;;;;;5.22;3.00;;;;;;;;;;4974670;28;20031;-72
2022/06/20 06:00:47;;;;;;;8.68;3.08;;;;;;;;;;4971248;28;20506;-72
2022/06/20 06:03:34;;;;;;;9.23;3.08;;;;;;;;;;4974553;28;20029;-71
2022/06/20 06:06:10;;;;;;;9.95;3.42;;;;;;;;;;4956975;28;20487;-71
2022/06/20 06:08:40;;;;;;;10.48;3.45;;;;;;;;;;4974175;28;20026;-71
2022/06/20 06:11:06;;;;;;;6.88;3.40;;;;;;;;;;4969337;28;20041;-79
2022/06/20 06:13:36;;;;;;;6.00;3.17;;;;;;;;;;4972494;28;20030;-79
2022/06/20 06:18:57;;;;;;;5.78;3.28;;;;;;;;;;4954482;28;20051;-79
2022/06/20 06:21:24;;;;;;;9.63;3.35;;;;;;;;;;4972665;28;20035;-77
2022/06/20 06:23:50;;;;;;;6.72;3.13;;;;;;;;;;4972241;28;20407;-78
2022/06/20 06:26:17;;;;;;;7.35;3.38;;;;;;;;;;4972847;28;20023;-80
2022/06/20 06:28:45;;;;;;;8.02;3.13;;;;;;;;;;4972985;28;20387;-80
2022/06/20 06:31:21;;;;;;;6.50;2.92;;;;;;;;;;4971451;28;20023;-79
2022/06/20 06:34:00;;;;;;;7.35;2.95;;;;;;;;;;4969436;28;20661;-78
2022/06/20 06:36:31;;;;;;;7.65;3.00;;;;;;;;;;4972409;28;20377;-78
2022/06/20 06:39:01;;;;;;;11.45;3.33;;;;;;;;;;4970923;28;20130;-79
2022/06/20 06:41:28;;;;;;;;;;;;;;;;;;4972751;28;20110;-78
2022/06/20 06:43:55;;;;;;;6.57;3.08;;;;;;;;;;4972723;28;19917;-78
2022/06/20 06:46:27;;;;;;;8.73;3.00;;;;;;;;;;4970465;28;20035;-78
2022/06/20 06:48:56;;;;;;;11.55;2.92;;;;;;;;;;4957195;28;20070;-78
2022/06/20 06:51:29;;;;;;;8.27;3.00;;;;;;;;;;4971583;28;20023;-79
2022/06/20 06:53:57;;;;;;;8.07;3.47;;;;;;;;;;4969812;28;20023;-79
2022/06/20 06:56:28;;;;;;;10.02;3.38;;;;;;;;;;4972389;28;20043;-77
2022/06/20 06:58:57;;;;;;;8.05;3.00;;;;;;;;;;4970680;28;20035;-78
2022/06/20 07:01:26;;;;;;;8.68;2.85;;;;;;;;;;4971300;28;20034;-79
2022/06/20 07:03:56;;;;;;;7.10;3.25;;;;;;;;;;4972466;28;20046;-76
2022/06/20 07:06:41;;;;;;;5.28;2.75;;;;;;;;;;4971416;28;20174;-77
2022/06/20 07:09:14;;;;;;;7.20;2.90;;;;;;;;;;4971657;28;20062;-77
2022/06/20 07:11:42;;;;;;;8.65;3.17;;;;;;;;;;4971567;28;20025;-77
2022/06/20 07:14:12;;;;;;;6.80;2.78;;;;;;;;;;4971979;28;20523;-78
2022/06/20 07:16:57;;;;;;;4.63;2.80;;;;;;;;;;4972343;28;20077;-69
2022/06/20 07:19:24;;;;;;;9.15;2.85;;;;;;;;;;4956767;28;20430;-70
2022/06/20 07:21:50;;;;;;;12.15;3.10;;;;;;;;;;4970563;28;20041;-70
2022/06/20 07:24:25;;;;;;;7.13;3.05;;;;;;;;;;4972170;28;20041;-69
2022/06/20 07:26:53;;;;;;;10.90;2.97;;;;;;;;;;4968037;28;20579;-70
2022/06/20 07:29:25;;;;;;;5.45;2.75;;;;;;;;;;4971064;28;20080;-70
2022/06/20 07:31:54;;;;;;;7.25;3.00;;;;;;;;;;4971874;28;20023;-70
2022/06/20 07:34:28;;;;;;;12.15;3.20;;;;;;;;;;4971619;28;20031;-71
2022/06/20 07:36:56;;;;;;;5.80;3.03;;;;;;;;;;4971700;28;20018;-71
2022/06/20 07:39:22;;;;;;;8.98;3.60;;;;;;;;;;4959959;28;20047;-70
2022/06/20 07:42:09;;;;;;;7.93;2.72;;;;;;;;;;4968288;28;20025;-71
2022/06/20 07:44:38;;;;;;;6.28;3.00;;;;;;;;;;4971068;28;20027;-69
2022/06/20 07:47:14;;;;;;;6.25;3.25;;;;;;;;;;4971098;28;20523;-70
2022/06/20 07:49:45;;;;;;;3.38;2.65;;;;;;;;;;4971499;28;20023;-70
2022/06/20 07:52:16;;;;;;;7.03;2.55;;;;;;;;;;4971663;28;20057;-70
2022/06/20 07:54:45;;;;;;;5.93;2.78;;;;;;;;;;4971116;28;20027;-70
2022/06/20 07:57:16;;;;;;;8.50;3.40;;;;;;;;;;4970502;28;20035;-70
2022/06/20 07:59:45;;;;;;;4.68;2.85;;;;;;;;;;4971444;28;20495;-70
2022/06/20 08:02:30;;;;;;;6.90;2.97;;;;;;;;;;4971167;28;20025;-70
2022/06/20 08:04:58;;;;;;;4.53;2.67;;;;;;;;;;4970497;28;20073;-70
2022/06/20 08:07:38;;;;;;;10.93;3.20;;;;;;;;;;4963745;28;20486;-70
2022/06/20 08:10:07;;;;;;;9.80;3.67;;;;;;;;;;4971460;28;20031;-70
2022/06/20 08:12:33;;;;;;;6.45;3.00;;;;;;;;;;4971996;28;20254;-70
2022/06/20 08:15:02;;;;;;;8.45;2.78;;;;;;;;;;4970840;28;20050;-69
2022/06/20 08:17:30;;;;;;;7.18;2.58;;;;;;;;;;4971149;28;20510;-69
2022/06/20 08:19:56;;;;;;;7.55;3.22;;;;;;;;;;4971059;28;20026;-68
2022/06/20 08:22:26;;;;;;;14.50;3.58;;;;;;;;;;4970937;28;20022;-69
2022/06/20 08:24:53;;;;;;;7.07;3.00;;;;;;;;;;4971603;28;20030;-69
2022/06/20 08:27:38;;;;;;;9.57;3.15;;;;;;;;;;4971214;28;20027;-69
2022/06/20 08:30:11;;;;;;;8.73;2.92;;;;;;;;;;4969954;28;20026;-69
2022/06/20 08:32:56;;;;;;;7.13;2.67;;;;;;;;;;4970916;28;20097;-69
2022/06/20 08:35:29;;;;;;;10.38;2.80;;;;;;;;;;4970544;28;20015;-69
2022/06/20 08:37:59;;;;;;;6.22;2.80;;;;;;;;;;4970634;28;20031;-69
2022/06/20 08:40:30;;;;;;;7.40;2.90;;;;;;;;;;4970533;28;20093;-69
2022/06/20 08:42:56;;;;;;;7.05;2.60;;;;;;;;;;4970942;28;20023;-70
2022/06/20 08:45:23;;;;;;;5.35;2.63;;;;;;;;;;4970902;28;20027;-69
2022/06/20 08:47:52;;;;;;;5.90;2.40;;;;;;;;;;4970600;28;20033;-70
2022/06/20 08:50:29;;;;;;;11.90;2.70;;;;;;;;;;4970816;28;20023;-70
2022/06/20 08:53:14;;;;;;;4.47;2.70;;;;;;;;;;4969638;28;20026;-69
2022/06/20 08:55:59;;;;;;;5.28;2.80;;;;;;;;;;4971012;28;20023;-69
2022/06/20 08:58:37;;;;;;;8.90;3.13;;;;;;;;;;4956733;28;20030;-70
2022/06/20 09:01:15;;;;;;;9.45;2.78;;;;;;;;;;4971136;28;20249;-69
2022/06/20 09:03:51;;;;;;;8.10;2.72;;;;;;;;;;4974136;28;20030;-69
2022/06/20 09:06:36;;;;;;;6.60;3.00;;;;;;;;;;4974155;28;20035;-70
2022/06/20 09:09:14;;;;;;;8.15;2.78;;;;;;;;;;4974224;28;20480;-71
2022/06/20 09:11:48;;;;;;;7.63;2.67;;;;;;;;;;4974572;28;20041;-71
2022/06/20 09:14:27;;;;;;;7.55;3.08;;;;;;;;;;4973059;28;20034;-70
2022/06/20 09:16:56;;;;;;;5.65;2.40;;;;;;;;;;4972787;28;20098;-70
2022/06/20 09:19:29;;;;;;;4.43;2.38;;;;;;;;;;4974312;28;20035;-71
2022/06/20 09:22:01;;;;;;;6.00;2.65;;;;;;;;;;4974631;28;20034;-71
2022/06/20 09:24:50;;;;;;;5.00;2.50;;;;;;;;;;4973761;28;20033;-71
2022/06/20 09:27:38;;;;;;;5.70;2.80;;;;;;;;;;4973457;28;20414;-71
2022/06/20 09:30:25;;;;;;;5.38;2.45;;;;;;;;;;4973926;28;20499;-71
2022/06/20 09:32:51;;;;;;;8.63;2.58;;;;;;;;;;4959717;28;20045;-70
2022/06/20 09:35:27;;;;;;;6.72;2.55;;;;;;;;;;4969611;28;20042;-70
2022/06/20 09:38:04;;;;;;;9.05;2.40;;;;;;;;;;4970830;28;20053;-70
2022/06/20 09:40:42;;;;;;;5.45;2.45;;;;;;;;;;4973192;28;20043;-70
2022/06/20 09:43:27;;;;;;;8.93;2.67;;;;;;;;;;4955595;28;20038;-70
2022/06/20 09:46:02;;;;;;;7.30;2.60;;;;;;;;;;4970668;28;20023;-70
2022/06/20 09:48:40;;;;;;;11.57;2.55;;;;;;;;;;4973586;28;20031;-69
2022/06/20 09:51:25;;;;;;;8.20;2.42;;;;;;;;;;4973261;28;20030;-69
2022/06/20 09:54:02;;;;;;;14.25;2.60;;;;;;;;;;4973445;28;20027;-83
2022/06/20 09:56:37;;;;;;;4.97;2.30;;;;;;;;;;4973124;28;20023;-73
2022/06/20 09:59:09;;;;;;;6.82;2.85;;;;;;;;;;4973782;28;20050;-82
2022/06/20 10:01:39;;;;;;;5.53;2.22;;;;;;;;;;4972864;28;20037;-84
2022/06/20 10:04:05;;;;;;;5.20;2.67;;;;;;;;;;4973274;28;20050;-85
2022/06/20 10:06:37;;;;;;;6.47;2.50;;;;;;;;;;4974162;28;20037;-84
2022/06/20 10:09:06;;;;;;;4.70;2.33;;;;;;;;;;4973189;28;20019;-84
2022/06/20 10:11:35;;;;;;;9.15;2.83;;;;;;;;;;4972288;28;20031;-85
2022/06/20 10:14:02;;;;;;;5.32;2.90;;;;;;;;;;4972827;28;20039;-84
2022/06/20 10:16:28;;;;;;;10.73;3.00;;;;;;;;;;4970971;28;20037;-85
2022/06/20 10:18:57;;;;;;;8.00;2.70;;;;;;;;;;4973378;28;20031;-83
2022/06/20 10:21:26;;;;;;;11.52;2.63;;;;;;;;;;4972684;28;20037;-84
2022/06/20 10:24:14;;;;;;;6.22;2.13;;;;;;;;;;4972979;28;20027;-84
2022/06/20 10:26:43;;;;;;;7.57;3.08;;;;;;;;;;4973101;28;20031;-84
2022/06/20 10:29:09;;;;;;;7.75;2.42;;;;;;;;;;4972625;28;20311;-84
2022/06/20 10:31:44;;;;;;;7.85;2.90;;;;;;;;;;4972678;28;20023;-84
2022/06/20 10:34:13;;;;;;;7.50;2.58;;;;;;;;;;4972624;28;20455;-84
2022/06/20 10:36:55;;;;;;;6.43;2.67;;;;;;;;;;4973356;28;20061;-85
2022/06/20 10:39:25;;;;;;;9.93;1.92;;;;;;;;;;4972828;28;20427;-84
2022/06/20 10:41:54;;;;;;;4.93;2.20;;;;;;;;;;4972638;28;20514;-84
2022/06/20 10:44:23;;;;;;;6.85;2.75;;;;;;;;;;4972333;28;20049;-85
2022/06/20 10:46:50;;;;;;;7.63;2.33;;;;;;;;;;4972664;28;20049;-84
2022/06/20 10:49:33;;;;;;;9.93;2.30;;;;;;;;;;4972661;28;20031;-84
2022/06/20 10:52:14;;;;;;;11.77;2.70;;;;;;;;;;4970340;28;20051;-83
2022/06/20 10:54:40;;;;;;;9.57;2.30;;;;;;;;;;4972074;28;20035;-84
2022/06/20 10:57:13;;;;;;;7.72;2.45;;;;;;;;;;4972283;28;20022;-84
2022/06/20 10:59:56;;;;;;;6.97;2.35;;;;;;;;;;4971444;28;20042;-83
2022/06/20 11:02:22;;;;;;;5.93;2.30;;;;;;;;;;4972225;28;20069;-83
2022/06/20 11:04:51;;;;;;;5.75;2.40;;;;;;;;;;4972460;28;20423;-83
2022/06/20 11:07:18;;;;;;;6.00;2.45;;;;;;;;;;4966413;28;20030;-84
2022/06/20 11:10:07;;;;;;;11.55;2.72;;;;;;;;;;4972762;28;20502;-83
2022/06/20 11:12:33;;;;;;;8.45;2.35;;;;;;;;;;4879030;29;20048;-83
2022/06/20 11:15:32;;;;;;;9.23;2.28;;;;;;;;;;4893113;29;20045;-82
2022/06/20 11:18:22;;;;;;;9.02;2.10;;;;;;;;;;4819721;29;20049;-83
2022/06/20 11:20:56;;;;;;;7.07;2.40;;;;;;;;;;4819460;29;20528;-82
2022/06/20 11:23:28;;;;;;;7.38;2.40;;;;;;;;;;4819439;29;20045;-81
2022/06/20 11:26:01;;;;;;;10.10;2.22;;;;;;;;;;4819689;29;20036;-83
2022/06/20 11:28:30;;;;;;;9.40;2.17;;;;;;;;;;4819322;29;20031;-82
2022/06/20 11:31:05;;;;;;;4.60;2.25;;;;;;;;;;4819658;29;20086;-80
2022/06/20 11:34:08;;;;;;;7.20;2.30;;;;;;;;;;4814250;29;20078;-82
2022/06/20 11:36:34;;;;;;;7.75;2.33;;;;;;;;;;4810590;29;20042;-82
2022/06/20 11:39:04;;;;;;;5.43;2.63;;;;;;;;;;4809895;29;20084;-82
2022/06/20 11:41:31;;;;;;;;;;;;;;;;;;4812944;29;20045;-83
2022/06/20 11:44:10;;;;;;;8.57;2.38;;;;;;;;;;4809782;29;19916;-81
2022/06/20 11:46:55;;;;;;;6.95;2.67;;;;;;;;;;4815982;29;20538;-81
2022/06/20 11:49:31;;;;;;;6.35;1.90;;;;;;;;;;4849964;29;20071;-83
2022/06/20 11:51:57;;;;;;;9.75;2.22;;;;;;;;;;4895636;29;20041;-82
2022/06/20 11:54:35;;;;;;;10.02;2.50;;;;;;;;;;4954827;28;20420;-84
2022/06/20 11:57:11;;;;;;;5.18;2.20;;;;;;;;;;4971227;28;20030;-81
2022/06/20 11:59:43;;;;;;;7.10;2.15;;;;;;;;;;4968815;28;20038;-83
2022/06/20 12:02:18;;;;;;;8.70;2.65;;;;;;;;;;4970914;28;20030;-82
2022/06/20 12:04:57;;;;;;;6.80;2.50;;;;;;;;;;4970038;28;20027;-82
2022/06/20 12:07:28;;;;;;;10.52;2.33;;;;;;;;;;4964699;28;20023;-83
2022/06/20 12:10:17;;;;;;;4.53;2.50;;;;;;;;;;4971135;28;20061;-83
2022/06/20 12:13:03;;;;;;;5.03;1.95;;;;;;;;;;4970001;28;20026;-83
2022/06/20 12:15:43;;;;;;;6.97;2.50;;;;;;;;;;4892005;29;20516;-84
2022/06/20 12:18:09;;;;;;;6.07;2.50;;;;;;;;;;4892089;29;20049;-83
2022/06/20 12:23:33;;;;;;;12.45;2.20;;;;;;;;;;4878988;29;20017;-83
2022/06/20 12:26:32;;;;;;;7.28;2.30;;;;;;;;;;4882544;29;20044;-83
2022/06/20 12:29:00;;;;;;;10.68;2.60;;;;;;;;;;4818503;29;20053;-83
2022/06/20 12:31:35;;;;;;;10.90;2.80;;;;;;;;;;4818373;29;20046;-81
2022/06/20 12:34:01;;;;;;;8.60;2.40;;;;;;;;;;4822188;29;20050;-83
2022/06/20 12:36:39;;;;;;;8.15;2.63;;;;;;;;;;4826404;29;20038;-83
2022/06/20 12:39:11;;;;;;;7.60;2.78;;;;;;;;;;4828720;29;20053;-83
2022/06/20 12:41:40;;;;;;;10.38;2.78;;;;;;;;;;4820633;29;20053;-83
2022/06/20 12:44:25;;;;;;;7.45;2.63;;;;;;;;;;4825651;29;20136;-82
2022/06/20 12:46:58;;;;;;;6.97;2.67;;;;;;;;;;4812698;29;20035;-82
2022/06/20 12:49:31;;;;;;;11.35;2.90;;;;;;;;;;4808371;29;20083;-84
2022/06/20 12:52:01;;;;;;;8.88;2.80;;;;;;;;;;4832139;29;20055;-83
2022/06/20 12:54:33;;;;;;;7.45;2.50;;;;;;;;;;4899736;29;20040;-83
2022/06/20 12:56:59;;;;;;;5.45;2.58;;;;;;;;;;4899761;29;20039;-82
2022/06/20 12:59:51;;;;;;;6.20;2.30;;;;;;;;;;4899152;29;20050;-82
2022/06/20 13:02:17;;;;;;;9.98;2.55;;;;;;;;;;4903994;29;20528;-81
2022/06/20 13:04:51;;;;;;;8.52;2.40;;;;;;;;;;4944228;28;20045;-81
2022/06/20 13:07:45;;;;;;;13.10;2.80;;;;;;;;;;4970917;28;20398;-83
2022/06/20 13:10:31;;;;;;;6.95;3.00;;;;;;;;;;4970653;28;20030;-82
2022/06/20 13:13:33;;;;;;;7.28;2.67;;;;;;;;;;4972699;28;20212;-83
2022/06/20 13:16:20;;;;;;;11.63;2.72;;;;;;;;;;4932213;29;20063;-82
2022/06/20 13:18:49;;;;;;;9.65;3.20;;;;;;;;;;4928966;29;20054;-82
2022/06/20 13:21:16;;;;;;;8.73;2.50;;;;;;;;;;4930461;29;20065;-82
2022/06/20 13:23:51;;;;;;;9.98;2.80;;;;;;;;;;4932072;29;20039;-83
2022/06/20 13:26:32;;;;;;;10.90;2.47;;;;;;;;;;4932641;29;20050;-82
2022/06/20 13:29:04;;;;;;;12.57;2.67;;;;;;;;;;4928596;29;20028;-82
2022/06/20 13:31:37;;;;;;;12.30;2.78;;;;;;;;;;4928618;29;20054;-83
2022/06/20 13:34:21;;;;;;;6.80;2.17;;;;;;;;;;4916338;29;20038;-84
2022/06/20 13:36:50;;;;;;;9.63;2.60;;;;;;;;;;4915883;29;20158;-83
2022/06/20 13:39:37;;;;;;;10.98;2.20;;;;;;;;;;4931762;29;20037;-82
2022/06/20 13:42:22;;;;;;;5.47;2.30;;;;;;;;;;4931057;29;20036;-83
2022/06/20 13:44:55;;;;;;;10.48;2.70;;;;;;;;;;4928471;29;20044;-82
2022/06/20 13:47:33;;;;;;;8.85;2.80;;;;;;;;;;4912420;29;20480;-83
2022/06/20 13:50:02;;;;;;;8.35;2.50;;;;;;;;;;4945073;28;20035;-83
2022/06/20 13:52:29;;;;;;;11.27;2.65;;;;;;;;;;4972931;28;20035;-84
2022/06/20 13:55:15;;;;;;;8.60;2.88;;;;;;;;;;4968120;28;20022;-85
2022/06/20 13:57:46;;;;;;;5.47;2.47;;;;;;;;;;4971980;28;20032;-85
2022/06/20 14:00:12;;;;;;;;;;;;;;;;;;4972339;28;20495;-85
2022/06/20 14:02:40;;;;;;;6.70;2.45;;;;;;;;;;4972165;28;19924;-85
2022/06/20 14:05:09;;;;;;;8.10;2.67;;;;;;;;;;4971242;28;20026;-84
2022/06/20 14:07:36;;;;;;;10.32;2.72;;;;;;;;;;4971709;28;20026;-85
2022/06/20 14:10:03;;;;;;;10.70;2.65;;;;;;;;;;4972026;28;20065;-84
2022/06/20 14:12:41;;;;;;;7.20;2.60;;;;;;;;;;4971790;28;20033;-82
2022/06/20 14:15:08;;;;;;;6.50;2.60;;;;;;;;;;4971574;28;20050;-84
2022/06/20 14:17:37;;;;;;;9.10;2.70;;;;;;;;;;4972044;28;20088;-82
2022/06/20 14:20:03;;;;;;;9.85;2.53;;;;;;;;;;4954433;28;20042;-82
2022/06/20 14:22:34;;;;;;;10.85;2.72;;;;;;;;;;4972518;28;20043;-82
2022/06/20 14:25:18;;;;;;;11.77;3.10;;;;;;;;;;4968695;28;20023;-84
2022/06/20 14:27:48;;;;;;;10.57;2.60;;;;;;;;;;4960622;28;20031;-85
2022/06/20 14:30:25;;;;;;;11.13;2.78;;;;;;;;;;4969180;28;20505;-83
2022/06/20 14:33:02;;;;;;;13.68;3.28;;;;;;;;;;4971782;28;20030;-83
2022/06/20 14:35:46;;;;;;;8.60;2.78;;;;;;;;;;4971232;28;20102;-82
2022/06/20 14:38:22;;;;;;;10.57;2.55;;;;;;;;;;4968087;28;20049;-83
2022/06/20 14:40:48;;;;;;;9.32;2.92;;;;;;;;;;4970532;28;20037;-83
2022/06/20 14:43:21;;;;;;;10.45;2.85;;;;;;;;;;4971314;28;20045;-84
2022/06/20 14:46:06;;;;;;;7.72;2.65;;;;;;;;;;4970700;28;20484;-81
2022/06/20 14:48:40;;;;;;;6.50;2.63;;;;;;;;;;4969685;28;20035;-76
2022/06/20 14:51:21;;;;;;;9.85;2.60;;;;;;;;;;4954043;28;20038;-83
2022/06/20 14:53:56;;;;;;;7.35;2.72;;;;;;;;;;4971782;28;20057;-81
2022/06/20 14:56:38;;;;;;;5.65;2.40;;;;;;;;;;4968671;28;20046;-83
2022/06/20 14:59:07;;;;;;;14.88;3.05;;;;;;;;;;4969832;28;20472;-82
2022/06/20 15:01:47;;;;;;;9.93;2.72;;;;;;;;;;4972379;28;20035;-83
2022/06/20 15:04:26;;;;;;;9.30;2.40;;;;;;;;;;4972911;28;20027;-81
2022/06/20 15:06:52;;;;;;;10.15;3.05;;;;;;;;;;4969093;28;20506;-80
2022/06/20 15:09:18;;;;;;;6.97;2.50;;;;;;;;;;4973203;28;20034;-85
2022/06/20 15:12:03;;;;;;;9.43;2.63;;;;;;;;;;4972409;28;20034;-83
2022/06/20 15:14:35;;;;;;;10.25;2.70;;;;;;;;;;4973022;28;20045;-84
2022/06/20 15:17:12;;;;;;;12.13;2.47;;;;;;;;;;4972996;28;20029;-84
2022/06/20 15:20:02;;;;;;;7.75;2.72;;;;;;;;;;4972600;28;20041;-84
2022/06/20 15:22:33;;;;;;;8.43;2.42;;;;;;;;;;4898478;29;20040;-82